Time;durP1;ratioP1;P1;durP2;ratioP2;P2;SDS_P1;SDS_P2;PMS_P1;PMS_P2;Temp;Humidity;BMP_temperature;BMP_pressure;BME280_temperature;BME280_humidity;BME280_pressure;Samples;Min_cycle;Max_cycle;Signal;HPM_P1;HPM_P2
2022/01/16 00:00:14;;;;;;;28.55;18.58;;;;;;;0.04;81.70;100252.44;5011675;28;20182;-71
2022/01/16 00:05:29;;;;;;;27.85;19.02;;;;;;;-0.03;82.15;100283.50;5009920;28;20196;-71
2022/01/16 00:07:55;;;;;;;34.97;20.20;;;;;;;-0.08;82.21;100295.59;5010226;28;20113;-71
2022/01/16 00:10:22;;;;;;;31.55;20.80;;;;;;;-0.10;82.28;100301.66;5010156;28;20121;-71
2022/01/16 00:12:48;;;;;;;22.63;14.18;;;;;;;-0.06;82.69;100313.75;5010028;28;20104;-71
2022/01/16 00:15:21;;;;;;;30.50;19.90;;;;;;;-0.03;82.10;100308.56;5011741;28;20029;-71
2022/01/16 00:18:08;;;;;;;30.80;17.58;;;;;;;-0.08;82.33;100298.19;5009687;28;20030;-71
2022/01/16 00:20:35;;;;;;;24.73;17.38;;;;;;;-0.10;82.76;100291.28;5010326;28;20112;-71
2022/01/16 00:23:02;;;;;;;25.92;16.42;;;;;;;-0.09;83.48;100309.44;5009636;28;20482;-71
2022/01/16 00:25:28;;;;;;;23.70;15.30;;;;;;;0.08;85.10;100303.44;5011706;28;20474;-72
2022/01/16 00:27:53;;;;;;;24.90;14.07;;;;;;;0.31;86.56;100293.94;5011735;28;20042;-72
2022/01/16 00:30:19;;;;;;;23.52;15.15;;;;;;;0.56;86.46;100291.34;5011104;28;20793;-72
2022/01/16 00:32:46;;;;;;;20.85;13.40;;;;;;;0.70;85.89;100296.53;5010651;28;20038;-72
2022/01/16 00:35:12;;;;;;;24.52;13.68;;;;;;;0.80;84.71;100300.84;5011436;28;20117;-72
2022/01/16 00:37:38;;;;;;;22.65;13.77;;;;;;;0.86;84.31;100300.81;5009491;28;20040;-73
2022/01/16 00:40:05;;;;;;;20.20;12.70;;;;;;;0.90;84.10;100299.97;5010406;28;20048;-73
2022/01/16 00:42:31;;;;;;;17.88;12.85;;;;;;;0.96;83.96;100309.47;4997377;28;20042;-74
2022/01/16 00:44:56;;;;;;;22.05;13.88;;;;;;;0.99;83.43;100304.28;4991593;28;20035;-73
2022/01/16 00:47:22;;;;;;;21.92;13.35;;;;;;;1.02;83.33;100320.72;4991016;28;20030;-72
2022/01/16 00:49:47;;;;;;;23.30;14.07;;;;;;;1.07;82.86;100336.28;4991468;28;20121;-73
2022/01/16 00:52:12;;;;;;;21.88;13.75;;;;;;;1.10;82.76;100327.63;4989960;28;20403;-73
2022/01/16 00:54:38;;;;;;;19.65;13.00;;;;;;;1.18;82.62;100324.16;4991404;28;20465;-72
2022/01/16 00:57:04;;;;;;;18.38;12.57;;;;;;;1.24;82.07;100316.34;4991131;28;20416;-71
2022/01/16 00:59:30;;;;;;;20.67;13.60;;;;;;;1.32;81.29;100311.13;4990328;28;20039;-72
2022/01/16 01:01:56;;;;;;;21.05;12.68;;;;;;;1.37;81.48;100305.91;4990086;28;20035;-72
2022/01/16 01:04:21;;;;;;;21.02;14.30;;;;;;;1.43;81.48;100306.75;4991272;28;20038;-72
2022/01/16 01:06:49;;;;;;;21.38;13.43;;;;;;;1.49;81.25;100304.13;4991389;28;20038;-71
2022/01/16 01:09:14;;;;;;;24.55;14.52;;;;;;;1.53;80.59;100307.59;4989400;28;20496;-71
2022/01/16 01:11:42;;;;;;;22.88;15.15;;;;;;;1.59;80.56;100317.94;4990722;28;20035;-71
2022/01/16 01:14:16;;;;;;;22.27;13.85;;;;;;;1.62;79.62;100306.69;4990409;28;20046;-71
2022/01/16 01:16:51;;;;;;;21.63;14.32;;;;;;;1.63;79.81;100314.47;4991232;28;20035;-70
2022/01/16 01:19:18;;;;;;;24.58;14.35;;;;;;;1.67;79.90;100294.53;4991544;28;20044;-71
2022/01/16 01:21:44;;;;;;;24.27;13.80;;;;;;;1.67;79.39;100311.00;5009311;28;20038;-70
2022/01/16 01:24:09;;;;;;;24.58;15.95;;;;;;;1.70;79.15;100326.56;5010745;28;20092;-70
2022/01/16 01:26:46;;;;;;;27.42;17.58;;;;;;;1.72;79.61;100323.94;5010147;28;20384;-70
2022/01/16 01:29:16;;;;;;;24.95;15.43;;;;;;;1.74;79.16;100329.16;5010388;28;20053;-71
2022/01/16 01:31:42;;;;;;;28.50;16.92;;;;;;;1.71;79.71;100302.31;5008789;28;20057;-71
2022/01/16 01:34:07;;;;;;;28.40;17.70;;;;;;;1.70;79.70;100250.34;5009766;28;20084;-71
2022/01/16 01:36:33;;;;;;;29.95;17.65;;;;;;;1.68;79.76;100247.75;5009362;28;20042;-71
2022/01/16 01:38:58;;;;;;;37.35;20.13;;;;;;;1.67;79.95;100246.03;4991502;28;20034;-71
2022/01/16 01:41:25;;;;;;;34.83;19.85;;;;;;;1.65;79.71;100233.88;5007099;28;20049;-71
2022/01/16 01:52:03;;;;;;;35.65;21.88;;;;;;;1.60;80.70;100285.91;4989423;28;20053;-71
2022/01/16 01:54:28;;;;;;;39.03;23.65;;;;;;;1.58;80.21;100305.84;5007882;28;20471;-71
2022/01/16 01:56:55;;;;;;;44.97;26.15;;;;;;;1.56;80.86;100299.78;5008922;28;20080;-71
2022/01/16 01:59:21;;;;;;;44.15;25.17;;;;;;;1.56;80.57;100299.78;5006653;28;20052;-71
2022/01/16 02:01:46;;;;;;;38.72;25.05;;;;;;;1.57;80.62;100306.69;4963625;28;20042;-71
2022/01/16 02:04:11;;;;;;;40.88;26.02;;;;;;;1.62;80.69;100323.13;4989355;28;20112;-71
2022/01/16 02:06:37;;;;;;;41.47;22.98;;;;;;;1.67;80.33;100316.19;4994113;28;20097;-71
2022/01/16 02:09:06;;;;;;;35.58;21.95;;;;;;;1.72;80.32;100303.16;4994854;28;20129;-71
2022/01/16 02:11:32;;;;;;;36.42;22.88;;;;;;;1.75;80.43;100318.75;4988533;28;20041;-72
2022/01/16 02:35:50;;;;;;;41.47;22.20;;;;;;;1.93;79.02;100315.19;5009377;28;20033;-71
2022/01/16 02:38:15;;;;;;;42.80;24.35;;;;;;;1.98;79.22;100315.19;5009153;28;20037;-71
2022/01/16 02:40:48;;;;;;;39.22;23.83;;;;;;;2.00;78.94;100321.22;5008122;28;20037;-71
2022/01/16 02:43:16;;;;;;;41.33;26.45;;;;;;;2.02;78.73;100309.94;5008865;28;20034;-71
2022/01/16 02:45:46;;;;;;;40.75;24.27;;;;;;;2.05;79.11;100296.06;5007201;28;20033;-71
2022/01/16 02:48:11;;;;;;;38.80;26.77;;;;;;;2.11;78.74;100285.59;5008227;28;20044;-71
2022/01/16 02:50:38;;;;;;;38.72;24.98;;;;;;;2.15;79.03;100292.53;5008901;28;20132;-71
2022/01/16 02:53:09;;;;;;;39.08;23.40;;;;;;;2.15;78.27;100293.38;5008194;28;20387;-71
2022/01/16 02:55:35;;;;;;;44.10;26.05;;;;;;;2.17;78.53;100292.50;5008632;28;20042;-72
2022/01/16 02:58:00;;;;;;;49.92;29.42;;;;;;;2.13;78.79;100281.25;5008596;28;20109;-71
2022/01/16 03:00:26;;;;;;;46.50;27.85;;;;;;;2.14;78.91;100276.06;5008108;28;20104;-72
2022/01/16 03:02:51;;;;;;;43.90;28.40;;;;;;;2.13;78.88;100270.84;5008169;28;20113;-72
2022/01/16 03:05:17;;;;;;;53.47;32.20;;;;;;;2.14;78.76;100275.19;5008886;28;20068;-73
2022/01/16 03:07:43;;;;;;;50.10;28.85;;;;;;;2.17;78.61;100272.56;5008806;28;20041;-72
2022/01/16 03:12:50;;;;;;;48.40;29.90;;;;;;;2.21;78.73;100255.19;5008327;28;20038;-72
2022/01/16 03:15:17;;;;;;;50.55;26.13;;;;;;;2.21;78.62;100244.78;5008123;28;20077;-72
2022/01/16 03:23:01;;;;;;;55.50;31.65;;;;;;;2.26;78.77;100232.59;5007792;28;20040;-71
2022/01/16 03:25:26;;;;;;;56.58;34.15;;;;;;;2.24;78.67;100245.66;5008340;28;20038;-72
2022/01/16 03:27:52;;;;;;;54.60;33.30;;;;;;;2.28;78.79;100243.88;5008107;28;20144;-72
2022/01/16 03:30:17;;;;;;;57.80;31.67;;;;;;;2.24;78.52;100247.34;5008432;28;20065;-72
2022/01/16 03:32:43;;;;;;;52.35;29.20;;;;;;;2.22;78.63;100250.00;5007867;28;20034;-71
2022/01/16 03:35:08;;;;;;;58.10;30.40;;;;;;;2.26;78.82;100250.81;5009070;28;20033;-72
2022/01/16 03:37:34;;;;;;;57.40;31.58;;;;;;;2.28;78.76;100252.53;5008329;28;20088;-72
2022/01/16 03:39:59;;;;;;;56.83;32.05;;;;;;;2.30;78.29;100256.00;5008194;28;20041;-72
2022/01/16 03:42:29;;;;;;;61.80;34.88;;;;;;;2.28;78.62;100236.06;4989735;28;20038;-72
2022/01/16 03:44:54;;;;;;;55.67;31.42;;;;;;;2.31;78.31;100236.03;5008485;28;20038;-72
2022/01/16 03:47:19;;;;;;;56.30;32.50;;;;;;;2.29;78.56;100240.38;5008388;28;20037;-71
2022/01/16 03:49:45;;;;;;;64.53;30.58;;;;;;;2.27;78.71;100245.63;5008617;28;20093;-72
2022/01/16 03:52:10;;;;;;;58.92;33.30;;;;;;;2.27;78.33;100243.00;5008087;28;20030;-72
2022/01/16 03:54:35;;;;;;;61.90;32.70;;;;;;;2.23;79.20;100249.09;5008221;28;20042;-72
2022/01/16 03:57:01;;;;;;;55.90;32.15;;;;;;;2.25;78.96;100247.34;5008256;28;20030;-72
2022/01/16 03:59:27;;;;;;;61.53;33.17;;;;;;;2.21;78.90;100269.06;5005304;28;20046;-72
2022/01/16 04:01:52;;;;;;;60.97;32.35;;;;;;;2.18;78.91;100255.22;5011860;28;20030;-72
2022/01/16 04:04:18;;;;;;;60.13;35.60;;;;;;;2.17;79.42;100262.19;4999673;28;20503;-72
2022/01/16 04:06:43;;;;;;;62.55;32.40;;;;;;;2.15;78.98;100250.91;4992185;28;20034;-72
2022/01/16 04:09:09;;;;;;;52.88;31.50;;;;;;;2.15;79.19;100261.31;4992727;28;20510;-72
2022/01/16 04:11:37;;;;;;;64.63;32.17;;;;;;;2.16;79.12;100252.63;4991247;28;20037;-72
2022/01/16 04:14:09;;;;;;;57.38;31.15;;;;;;;2.15;79.58;100258.72;4995367;28;20049;-71
2022/01/16 04:16:35;;;;;;;64.80;33.80;;;;;;;2.15;79.31;100249.16;4995071;28;20046;-72
2022/01/16 04:19:02;;;;;;;60.90;35.25;;;;;;;2.18;79.10;100253.47;4992327;28;20041;-72
2022/01/16 04:21:28;;;;;;;57.30;33.92;;;;;;;2.22;79.63;100251.75;4990447;28;20069;-71
2022/01/16 04:23:54;;;;;;;53.33;32.33;;;;;;;2.23;79.32;100262.09;4992486;28;20056;-71
2022/01/16 04:26:20;;;;;;;62.30;33.22;;;;;;;2.24;79.31;100266.47;4991793;28;20089;-71
2022/01/16 04:28:46;;;;;;;55.88;32.80;;;;;;;2.26;79.42;100269.03;5000188;28;20038;-71
2022/01/16 04:31:13;;;;;;;55.25;31.75;;;;;;;2.26;79.06;100275.09;5010536;28;20042;-71
2022/01/16 04:33:38;;;;;;;58.80;33.88;;;;;;;2.25;79.22;100273.38;5010899;28;20400;-71
2022/01/16 04:36:04;;;;;;;64.28;34.22;;;;;;;2.20;79.43;100277.75;5011108;28;20026;-71
2022/01/16 04:38:30;;;;;;;54.72;31.33;;;;;;;2.20;79.55;100269.94;5011276;28;20034;-71
2022/01/16 04:43:48;;;;;;;56.50;32.95;;;;;;;2.22;79.30;100273.41;5010678;28;20088;-71
2022/01/16 04:46:21;;;;;;;61.95;34.70;;;;;;;2.24;79.36;100269.06;5009625;28;20080;-71
2022/01/16 04:48:48;;;;;;;59.97;32.85;;;;;;;2.28;79.41;100265.53;5010998;28;20061;-72
2022/01/16 04:51:14;;;;;;;59.67;38.10;;;;;;;2.27;79.54;100271.63;5008745;28;20030;-72
2022/01/16 04:53:41;;;;;;;59.25;35.15;;;;;;;2.28;79.47;100275.94;5011341;28;20038;-71
2022/01/16 04:56:07;;;;;;;57.33;33.63;;;;;;;2.31;79.57;100270.75;5009584;28;20038;-72
2022/01/16 04:58:33;;;;;;;58.72;34.95;;;;;;;2.34;79.23;100275.91;5010835;28;20848;-72
2022/01/16 05:00:58;;;;;;;57.60;33.35;;;;;;;2.34;79.08;100281.13;5008197;28;20573;-72
2022/01/16 05:03:25;;;;;;;66.47;35.83;;;;;;;2.33;79.25;100268.97;5010441;28;20034;-72
2022/01/16 05:05:51;;;;;;;57.95;35.13;;;;;;;2.36;79.39;100260.28;5010488;28;20064;-72
2022/01/16 05:08:17;;;;;;;57.22;31.92;;;;;;;2.39;79.04;100280.19;5010807;28;20038;-72
2022/01/16 05:10:42;;;;;;;53.47;33.75;;;;;;;2.40;79.32;100271.53;5009567;28;20062;-72
2022/01/16 05:18:38;;;;;;;54.13;34.15;;;;;;;2.46;78.76;100277.56;5004637;28;20561;-72
2022/01/16 05:21:05;;;;;;;56.47;34.90;;;;;;;2.46;78.68;100266.25;5009218;28;20026;-71
2022/01/16 05:23:31;;;;;;;72.32;38.53;;;;;;;2.42;78.55;100280.19;5010294;28;20026;-72
2022/01/16 05:25:57;;;;;;;51.92;33.47;;;;;;;2.38;79.16;100279.34;5010409;28;20036;-72
2022/01/16 05:28:22;;;;;;;53.85;33.60;;;;;;;2.42;78.87;100288.84;5009946;28;20033;-72
2022/01/16 05:30:48;;;;;;;60.15;31.42;;;;;;;2.41;78.98;100288.84;5009370;28;20026;-71
2022/01/16 05:33:14;;;;;;;56.60;31.98;;;;;;;2.40;78.83;100279.34;5009898;28;20041;-72
2022/01/16 05:35:39;;;;;;;55.38;33.88;;;;;;;2.32;79.19;100280.25;5010657;28;20030;-70
2022/01/16 05:38:05;;;;;;;59.50;33.90;;;;;;;2.36;79.14;100283.69;5008171;28;20034;-71
2022/01/16 05:40:30;;;;;;;54.47;30.95;;;;;;;2.40;78.98;100280.19;5008965;28;20037;-71
2022/01/16 05:42:56;;;;;;;67.78;35.45;;;;;;;2.40;78.95;100284.53;5009191;28;20497;-71
2022/01/16 05:45:22;;;;;;;55.50;35.10;;;;;;;2.34;79.14;100282.84;5010323;28;20038;-71
2022/01/16 05:47:47;;;;;;;58.03;33.17;;;;;;;2.35;79.31;100285.44;5010322;28;20483;-71
2022/01/16 05:50:13;;;;;;;64.20;36.17;;;;;;;2.36;79.29;100284.56;5009698;28;20026;-71
2022/01/16 05:52:39;;;;;;;61.47;34.67;;;;;;;2.38;79.15;100292.34;5008196;28;20044;-71
2022/01/16 05:55:05;;;;;;;62.05;35.28;;;;;;;2.40;79.12;100295.81;5009722;28;20033;-70
2022/01/16 05:57:30;;;;;;;58.40;31.77;;;;;;;2.43;79.09;100289.72;5009689;28;20057;-71
2022/01/16 05:59:55;;;;;;;63.90;35.50;;;;;;;2.47;78.58;100281.88;5009153;28;20037;-70
2022/01/16 06:02:21;;;;;;;59.45;33.50;;;;;;;2.45;79.01;100280.16;5008653;28;20042;-71
2022/01/16 06:04:46;;;;;;;60.08;34.55;;;;;;;2.49;79.02;100279.28;5007802;28;20092;-71
2022/01/16 06:07:12;;;;;;;64.55;36.13;;;;;;;2.50;78.59;100271.44;5009823;28;20522;-71
2022/01/16 06:09:37;;;;;;;53.72;33.88;;;;;;;2.50;79.26;100268.84;5009608;28;20065;-71
2022/01/16 06:12:04;;;;;;;67.43;39.25;;;;;;;2.53;78.50;100275.75;5008618;28;20059;-71
2022/01/16 06:14:30;;;;;;;64.07;36.88;;;;;;;2.51;78.67;100283.59;5008989;28;20033;-71
2022/01/16 06:16:56;;;;;;;65.60;38.28;;;;;;;2.52;78.84;100272.28;5009328;28;20037;-71
2022/01/16 06:19:21;;;;;;;59.30;35.08;;;;;;;2.55;78.71;100274.00;5009376;28;20088;-70
2022/01/16 06:21:47;;;;;;;56.50;34.28;;;;;;;2.60;78.57;100289.59;5007902;28;20125;-71
2022/01/16 06:24:12;;;;;;;56.80;33.08;;;;;;;2.60;78.52;100290.44;5009938;28;20122;-71
2022/01/16 06:26:38;;;;;;;58.25;34.88;;;;;;;2.61;78.56;100294.78;4991818;28;20030;-72
2022/01/16 06:29:04;;;;;;;52.80;32.97;;;;;;;2.64;78.23;100292.16;5007500;28;22184;-72
2022/01/16 06:31:29;;;;;;;56.88;34.03;;;;;;;2.68;78.04;100296.44;5008515;28;20500;-71
2022/01/16 06:33:55;;;;;;;57.22;33.50;;;;;;;2.70;78.18;100304.22;5007654;28;20041;-71
2022/01/16 06:36:20;;;;;;;56.28;33.72;;;;;;;2.64;78.18;100304.31;5009261;28;20121;-71
2022/01/16 06:38:46;;;;;;;63.00;37.50;;;;;;;2.64;78.18;100304.31;5008952;28;20207;-72
2022/01/16 06:41:12;;;;;;;64.07;35.90;;;;;;;2.57;78.48;100304.34;5008437;28;20388;-71
2022/01/16 06:43:38;;;;;;;62.35;34.00;;;;;;;2.56;78.92;100315.63;5006969;28;20056;-71
2022/01/16 06:46:03;;;;;;;60.30;35.95;;;;;;;2.58;78.78;100318.22;5009121;28;20164;-71
2022/01/16 06:48:28;;;;;;;59.97;34.50;;;;;;;2.62;78.72;100329.47;5008902;28;20087;-72
2022/01/16 06:50:54;;;;;;;65.47;38.67;;;;;;;2.61;78.59;100323.41;5007961;28;20395;-72
2022/01/16 06:53:19;;;;;;;68.22;36.20;;;;;;;2.59;78.68;100319.97;5013155;28;20122;-72
2022/01/16 06:55:44;;;;;;;65.03;36.97;;;;;;;2.62;78.50;100335.53;5010017;28;20088;-71
2022/01/16 06:58:10;;;;;;;60.17;34.17;;;;;;;2.62;78.55;100330.34;5009723;28;20030;-72
2022/01/16 07:00:35;;;;;;;67.25;38.13;;;;;;;2.65;78.50;100337.25;5006764;28;20037;-72
2022/01/16 07:03:01;;;;;;;64.18;35.90;;;;;;;2.65;78.52;100337.25;5008501;28;20513;-72
2022/01/16 07:05:26;;;;;;;62.67;35.28;;;;;;;2.63;78.77;100336.41;5008346;28;20104;-72
2022/01/16 07:07:51;;;;;;;65.18;35.90;;;;;;;2.62;78.74;100343.34;5009093;28;20566;-73
2022/01/16 07:10:17;;;;;;;62.70;38.50;;;;;;;2.63;78.75;100342.47;5008660;28;20470;-73
2022/01/16 07:12:43;;;;;;;66.43;36.92;;;;;;;2.64;78.63;100343.34;5008523;28;20029;-71
2022/01/16 07:15:09;;;;;;;66.28;37.15;;;;;;;2.62;78.40;100351.16;5008457;28;20041;-71
2022/01/16 07:17:34;;;;;;;64.82;35.70;;;;;;;2.57;79.22;100355.53;5006638;28;20042;-70
2022/01/16 07:19:59;;;;;;;58.65;34.80;;;;;;;2.57;79.18;100361.59;5008624;28;20033;-70
2022/01/16 07:22:25;;;;;;;65.20;36.38;;;;;;;2.60;79.23;100362.47;5007779;28;20042;-70
2022/01/16 07:24:50;;;;;;;65.15;37.53;;;;;;;2.57;79.54;100368.56;5008303;28;20038;-70
2022/01/16 07:27:16;;;;;;;62.25;37.35;;;;;;;2.57;79.62;100369.41;5008921;28;20040;-70
2022/01/16 07:29:42;;;;;;;73.78;39.40;;;;;;;2.56;79.56;100374.66;5007753;28;20057;-70
2022/01/16 07:32:08;;;;;;;75.13;39.92;;;;;;;2.56;79.73;100378.09;5007324;28;20034;-70
2022/01/16 07:34:33;;;;;;;68.07;36.97;;;;;;;2.60;79.74;100393.69;5010752;28;20048;-70
2022/01/16 07:36:58;;;;;;;65.70;38.55;;;;;;;2.61;79.82;100383.28;5011617;28;20036;-70
2022/01/16 07:39:24;;;;;;;65.90;37.47;;;;;;;2.62;79.42;100389.34;5011953;28;20073;-70
2022/01/16 07:41:49;;;;;;;74.00;41.22;;;;;;;2.62;79.62;100382.41;4994487;28;20108;-71
2022/01/16 07:44:15;;;;;;;70.28;39.03;;;;;;;2.62;79.99;100387.59;5008404;28;20030;-71
2022/01/16 07:46:40;;;;;;;65.68;36.75;;;;;;;2.64;80.01;100401.47;5012131;28;20045;-71
2022/01/16 07:49:05;;;;;;;70.07;35.85;;;;;;;2.67;79.89;100406.66;5012115;28;20144;-71
2022/01/16 07:51:32;;;;;;;68.03;37.25;;;;;;;2.67;79.70;100408.41;4993610;28;20125;-71
2022/01/16 07:53:57;;;;;;;68.68;34.65;;;;;;;2.67;79.65;100413.59;5011815;28;20038;-71
2022/01/16 07:56:24;;;;;;;66.13;36.83;;;;;;;2.64;79.79;100411.88;5012214;28;20080;-71
2022/01/16 07:58:49;;;;;;;81.38;41.55;;;;;;;2.61;80.14;100411.91;5007185;28;20030;-71
2022/01/16 08:01:14;;;;;;;64.45;37.60;;;;;;;2.61;80.35;100413.63;5010319;28;20573;-72
2022/01/16 08:03:40;;;;;;;69.03;39.72;;;;;;;2.61;80.23;100414.53;5005736;28;20109;-71
2022/01/16 08:06:05;;;;;;;75.63;37.70;;;;;;;2.64;79.97;100411.88;4992834;28;20117;-71
2022/01/16 08:08:30;;;;;;;66.90;37.95;;;;;;;2.65;80.09;100408.41;4992048;28;20069;-71
2022/01/16 08:10:56;;;;;;;79.35;39.70;;;;;;;2.64;79.80;100411.88;4991459;28;20053;-71
2022/01/16 08:13:21;;;;;;;68.32;37.40;;;;;;;2.66;79.69;100409.25;5000260;28;20050;-71
2022/01/16 08:15:46;;;;;;;71.22;41.03;;;;;;;2.67;80.01;100413.59;5011460;28;20036;-71
2022/01/16 08:18:12;;;;;;;70.75;36.17;;;;;;;2.69;79.95;100412.72;5002841;28;20042;-71
2022/01/16 08:20:37;;;;;;;70.47;39.42;;;;;;;2.74;79.72;100408.34;5004789;28;20043;-72
2022/01/16 08:23:03;;;;;;;61.88;33.60;;;;;;;2.79;79.76;100403.97;4991396;28;20034;-72
2022/01/16 08:25:28;;;;;;;63.22;33.50;;;;;;;2.86;79.35;100422.16;4991836;28;20034;-72
2022/01/16 08:27:53;;;;;;;67.30;38.45;;;;;;;2.85;79.22;100423.00;4991757;28;20054;-71
2022/01/16 08:30:19;;;;;;;64.20;33.97;;;;;;;2.87;79.11;100422.13;5010212;28;20052;-72
2022/01/16 08:32:44;;;;;;;67.95;35.08;;;;;;;2.91;79.13;100418.63;5010415;28;20038;-71
2022/01/16 08:35:10;;;;;;;69.57;35.60;;;;;;;2.91;78.95;100420.38;5010345;28;20545;-71
2022/01/16 08:37:36;;;;;;;63.92;34.50;;;;;;;2.91;78.74;100415.16;5010642;28;20041;-71
2022/01/16 08:40:03;;;;;;;63.00;35.50;;;;;;;2.97;78.60;100420.31;5009537;28;20495;-71
2022/01/16 08:42:29;;;;;;;63.25;33.22;;;;;;;3.00;78.97;100428.09;5009540;28;20048;-72
2022/01/16 08:44:55;;;;;;;60.08;34.85;;;;;;;3.01;78.38;100429.84;5009482;28;20030;-71
2022/01/16 08:47:20;;;;;;;62.10;35.42;;;;;;;2.98;78.49;100438.53;5011304;28;20046;-72
2022/01/16 08:49:45;;;;;;;61.45;32.72;;;;;;;3.02;78.59;100444.59;5011551;28;20037;-72
2022/01/16 08:52:11;;;;;;;73.35;35.28;;;;;;;2.99;78.12;100450.69;5007206;28;20065;-72
2022/01/16 08:54:37;;;;;;;69.22;38.53;;;;;;;2.99;78.01;100450.69;5007243;28;20466;-71
2022/01/16 08:57:03;;;;;;;63.97;32.95;;;;;;;3.07;78.35;100457.56;5002243;28;20042;-72
2022/01/16 08:59:29;;;;;;;67.82;35.65;;;;;;;3.13;78.31;100457.53;5007790;28;20439;-72
2022/01/16 09:01:54;;;;;;;73.25;39.17;;;;;;;3.17;78.08;100459.22;5008374;28;20088;-71
2022/01/16 09:04:19;;;;;;;69.15;33.70;;;;;;;3.19;77.93;100452.25;5010204;28;20128;-71
2022/01/16 09:06:45;;;;;;;63.50;33.22;;;;;;;3.23;77.82;100459.19;5010721;28;20067;-72
2022/01/16 09:09:10;;;;;;;64.43;33.78;;;;;;;3.23;77.78;100448.75;5010165;28;20427;-72
2022/01/16 09:11:36;;;;;;;60.70;33.65;;;;;;;3.29;77.72;100463.47;5009675;28;20084;-71
2022/01/16 09:14:01;;;;;;;60.70;31.75;;;;;;;3.28;77.56;100453.94;5010806;28;20062;-71
2022/01/16 09:16:27;;;;;;;69.85;33.65;;;;;;;3.27;77.80;100445.22;5009981;28;20480;-72
2022/01/16 09:18:53;;;;;;;61.35;33.47;;;;;;;3.28;77.78;100444.38;5008964;28;20034;-71
2022/01/16 09:21:19;;;;;;;64.93;36.33;;;;;;;3.33;77.80;100449.56;5009387;28;20042;-71
2022/01/16 09:23:46;;;;;;;67.55;35.92;;;;;;;3.33;77.84;100452.16;5008884;28;20057;-72
2022/01/16 09:26:12;;;;;;;62.42;35.83;;;;;;;3.39;77.68;100467.72;5009873;28;20038;-72
2022/01/16 09:28:38;;;;;;;64.43;35.55;;;;;;;3.42;77.42;100470.28;5010045;28;20046;-72
2022/01/16 09:31:04;;;;;;;56.83;33.45;;;;;;;3.46;77.30;100484.19;5009185;28;20034;-71
2022/01/16 09:33:29;;;;;;;64.95;35.30;;;;;;;3.49;77.35;100485.00;5009307;28;20125;-69
2022/01/16 09:35:55;;;;;;;63.80;34.58;;;;;;;3.51;77.45;100475.44;5010036;28;20042;-69
2022/01/16 09:38:22;;;;;;;62.88;34.85;;;;;;;3.51;77.39;100487.59;5009756;28;20042;-69
2022/01/16 09:40:48;;;;;;;66.57;35.22;;;;;;;3.56;77.26;100485.81;5006923;28;20112;-70
2022/01/16 09:43:15;;;;;;;71.85;34.75;;;;;;;3.54;77.36;100478.00;5009955;28;20034;-70
2022/01/16 09:45:41;;;;;;;61.70;33.17;;;;;;;3.52;77.59;100486.72;5010340;28;20034;-70
2022/01/16 09:48:06;;;;;;;66.70;34.67;;;;;;;3.54;77.20;100495.38;5009661;28;20041;-71
2022/01/16 09:50:32;;;;;;;68.65;35.28;;;;;;;3.56;77.42;100488.44;5009142;28;20033;-70
2022/01/16 09:52:59;;;;;;;65.00;35.08;;;;;;;3.57;77.28;100491.03;5009809;28;20034;-69
2022/01/16 09:55:25;;;;;;;62.05;33.38;;;;;;;3.58;77.33;100499.72;5010252;28;20050;-70
2022/01/16 09:57:51;;;;;;;63.28;33.03;;;;;;;3.61;77.42;100510.09;5007191;28;20529;-68
2022/01/16 10:00:18;;;;;;;64.15;34.08;;;;;;;3.61;77.17;100502.28;4990473;28;20472;-67
2022/01/16 10:02:44;;;;;;;60.78;35.60;;;;;;;3.64;77.37;100515.28;4993585;28;20045;-68
2022/01/16 10:05:30;;;;;;;63.47;34.38;;;;;;;3.65;76.94;100512.69;4998978;28;20121;-67
2022/01/16 10:07:57;;;;;;;62.33;34.67;;;;;;;3.64;77.36;100523.09;5004040;28;20478;-68
2022/01/16 10:10:35;;;;;;;69.40;32.90;;;;;;;3.64;77.65;100520.50;5005088;28;20180;-68
2022/01/16 10:13:20;;;;;;;69.22;36.45;;;;;;;3.64;76.88;100507.47;5003338;28;20064;-68
2022/01/16 10:15:53;;;;;;;66.65;33.00;;;;;;;3.63;77.55;100510.97;5004205;28;20037;-68
2022/01/16 10:18:31;;;;;;;62.50;34.67;;;;;;;3.69;77.05;100515.25;4997619;28;20042;-68
2022/01/16 10:20:57;;;;;;;62.40;32.30;;;;;;;3.68;77.32;100514.38;5002892;28;20065;-67
2022/01/16 10:23:22;;;;;;;57.28;33.38;;;;;;;3.65;77.02;100515.28;5001630;28;20499;-68
2022/01/16 10:25:48;;;;;;;66.15;37.05;;;;;;;3.68;77.24;100518.75;4998038;28;20121;-68
2022/01/16 10:28:17;;;;;;;63.50;33.70;;;;;;;3.71;77.38;100518.72;4986760;28;20038;-68
2022/01/16 10:30:49;;;;;;;48.88;29.73;;;;;;;3.72;77.02;100515.25;4998061;28;20614;-68
2022/01/16 10:33:22;;;;;;;53.92;31.48;;;;;;;3.74;77.00;100518.66;4994542;28;20045;-69
2022/01/16 10:35:50;;;;;;;50.38;29.70;;;;;;;3.75;77.40;100515.19;4996277;28;20049;-69
2022/01/16 10:38:29;;;;;;;58.90;34.92;;;;;;;3.81;77.19;100515.13;4984114;28;20177;-68
2022/01/16 10:40:56;;;;;;;61.97;36.75;;;;;;;3.78;76.92;100516.03;4996779;28;20030;-68
2022/01/16 10:43:43;;;;;;;55.10;30.60;;;;;;;3.75;77.00;100512.59;4997956;28;20151;-68
2022/01/16 10:46:12;;;;;;;57.08;33.20;;;;;;;3.76;77.21;100509.94;4999421;28;20133;-69
2022/01/16 10:48:38;;;;;;;56.00;30.13;;;;;;;3.76;76.94;100507.34;4999161;28;20045;-73
2022/01/16 10:51:03;;;;;;;57.10;32.28;;;;;;;3.75;76.64;100502.16;4994131;28;20055;-71
2022/01/16 10:53:31;;;;;;;48.80;28.17;;;;;;;3.81;76.80;100504.69;4984395;28;20042;-71
2022/01/16 10:55:59;;;;;;;55.38;30.83;;;;;;;3.79;76.76;100507.34;4984080;28;20035;-71
2022/01/16 10:58:26;;;;;;;52.85;31.67;;;;;;;3.73;77.19;100516.97;4984188;28;20046;-69
2022/01/16 11:01:03;;;;;;;47.05;28.10;;;;;;;3.76;77.26;100514.31;4982771;28;20574;-71
2022/01/16 11:03:38;;;;;;;53.35;29.98;;;;;;;3.81;76.63;100517.72;4997629;28;20041;-72
2022/01/16 11:06:03;;;;;;;54.97;29.33;;;;;;;3.82;76.93;100522.94;5000362;28;20049;-72
2022/01/16 11:08:29;;;;;;;49.88;31.40;;;;;;;3.90;76.76;100519.41;4983934;28;20459;-71
2022/01/16 11:10:56;;;;;;;47.72;27.40;;;;;;;3.96;76.59;100529.75;4957348;28;20697;-73
2022/01/16 11:13:27;;;;;;;52.55;29.38;;;;;;;3.95;76.38;100528.03;4982705;28;20042;-71
2022/01/16 11:15:54;;;;;;;51.58;31.17;;;;;;;3.94;76.36;100529.78;4984317;28;20030;-72
2022/01/16 11:18:22;;;;;;;60.88;38.42;;;;;;;3.92;76.63;100522.88;4983669;28;20108;-73
2022/01/16 11:23:48;;;;;;;41.30;27.40;;;;;;;3.91;76.91;100540.22;5003868;28;20438;-73
2022/01/16 11:26:15;;;;;;;43.40;25.92;;;;;;;3.94;77.03;100540.22;5003507;28;20323;-72
2022/01/16 11:28:41;;;;;;;45.75;28.25;;;;;;;3.95;77.06;100541.09;4986503;28;20113;-72
2022/01/16 11:31:09;;;;;;;39.35;24.08;;;;;;;3.92;77.55;100541.13;4993203;28;20102;-71
2022/01/16 11:33:37;;;;;;;45.65;25.95;;;;;;;3.93;77.66;100541.09;4990198;28;20182;-72
2022/01/16 11:36:11;;;;;;;46.72;27.13;;;;;;;3.93;77.28;100541.09;5007532;28;20045;-72
2022/01/16 11:38:46;;;;;;;48.75;26.67;;;;;;;3.95;77.49;100538.47;5008019;28;20049;-71
2022/01/16 11:41:23;;;;;;;36.58;23.35;;;;;;;3.95;77.82;100544.56;5004535;28;20771;-72
2022/01/16 11:43:51;;;;;;;41.35;25.92;;;;;;;3.97;78.09;100537.59;5002730;28;20503;-71
2022/01/16 11:46:19;;;;;;;40.67;25.35;;;;;;;3.98;78.33;100541.06;5003572;28;20033;-72
2022/01/16 11:48:47;;;;;;;38.63;24.15;;;;;;;4.00;78.69;100536.69;5003233;28;20038;-73
2022/01/16 11:51:39;;;;;;;47.15;26.25;;;;;;;4.00;79.04;100544.50;5002632;28;20045;-71
2022/01/16 11:54:09;;;;;;;41.45;24.42;;;;;;;3.97;79.85;100542.78;5003080;28;20582;-71
2022/01/16 11:56:37;;;;;;;41.25;24.25;;;;;;;3.93;79.52;100538.47;5003253;28;20044;-72
2022/01/16 11:59:11;;;;;;;38.90;26.05;;;;;;;3.90;80.36;100535.06;5003832;28;20042;-72
2022/01/16 12:01:45;;;;;;;44.85;25.98;;;;;;;3.88;80.60;100533.31;5002980;28;20500;-74
2022/01/16 12:04:29;;;;;;;41.67;23.08;;;;;;;3.86;80.65;100534.19;5003200;28;20038;-74
2022/01/16 12:07:20;;;;;;;46.30;28.60;;;;;;;3.88;81.24;100530.69;5003110;28;20133;-72